sensor_id;sensor_type;location;lat;lon;timestamp;P1;durP1;ratioP1;P2;durP2;ratioP2
11829;SDS011;5972;42.134;24.718;2023-04-01T00:01:04;6.50;;;5.18;;
11829;SDS011;5972;42.134;24.718;2023-04-01T00:03:32;10.73;;;5.63;;
11829;SDS011;5972;42.134;24.718;2023-04-01T00:06:00;12.00;;;5.63;;
11829;SDS011;5972;42.134;24.718;2023-04-01T00:08:27;12.50;;;6.05;;
11829;SDS011;5972;42.134;24.718;2023-04-01T00:10:55;7.90;;;5.70;;
11829;SDS011;5972;42.134;24.718;2023-04-01T00:13:24;8.68;;;5.63;;
11829;SDS011;5972;42.134;24.718;2023-04-01T00:15:52;8.18;;;5.47;;
11829;SDS011;5972;42.134;24.718;2023-04-01T00:18:19;12.30;;;6.50;;
11829;SDS011;5972;42.134;24.718;2023-04-01T00:20:46;10.32;;;6.55;;
11829;SDS011;5972;42.134;24.718;2023-04-01T00:23:15;10.30;;;6.65;;
11829;SDS011;5972;42.134;24.718;2023-04-01T00:25:43;13.52;;;6.68;;
11829;SDS011;5972;42.134;24.718;2023-04-01T00:28:10;9.73;;;6.55;;
11829;SDS011;5972;42.134;24.718;2023-04-01T00:30:38;9.40;;;6.60;;
11829;SDS011;5972;42.134;24.718;2023-04-01T00:33:05;7.80;;;5.85;;
11829;SDS011;5972;42.134;24.718;2023-04-01T00:35:32;9.82;;;6.30;;
11829;SDS011;5972;42.134;24.718;2023-04-01T00:37:59;8.70;;;6.97;;
11829;SDS011;5972;42.134;24.718;2023-04-01T00:40:27;7.75;;;6.15;;
11829;SDS011;5972;42.134;24.718;2023-04-01T00:42:56;10.13;;;6.03;;
11829;SDS011;5972;42.134;24.718;2023-04-01T00:45:25;12.02;;;6.55;;
11829;SDS011;5972;42.134;24.718;2023-04-01T00:47:56;11.68;;;7.05;;
11829;SDS011;5972;42.134;24.718;2023-04-01T00:50:25;11.23;;;6.70;;
11829;SDS011;5972;42.134;24.718;2023-04-01T00:52:55;10.32;;;6.78;;
11829;SDS011;5972;42.134;24.718;2023-04-01T00:55:22;11.18;;;6.50;;
11829;SDS011;5972;42.134;24.718;2023-04-01T00:57:51;10.57;;;7.15;;
11829;SDS011;5972;42.134;24.718;2023-04-01T01:00:19;10.80;;;7.05;;
11829;SDS011;5972;42.134;24.718;2023-04-01T01:02:46;10.88;;;7.30;;
11829;SDS011;5972;42.134;24.718;2023-04-01T01:05:19;9.60;;;6.93;;
11829;SDS011;5972;42.134;24.718;2023-04-01T01:07:56;12.13;;;7.22;;
11829;SDS011;5972;42.134;24.718;2023-04-01T01:10:29;11.48;;;7.40;;
11829;SDS011;5972;42.134;24.718;2023-04-01T01:13:01;12.68;;;8.18;;
11829;SDS011;5972;42.134;24.718;2023-04-01T01:15:34;12.73;;;8.15;;
11829;SDS011;5972;42.134;24.718;2023-04-01T01:18:05;11.25;;;8.00;;
11829;SDS011;5972;42.134;24.718;2023-04-01T01:24:03;11.52;;;8.07;;
11829;SDS011;5972;42.134;24.718;2023-04-01T01:26:53;17.13;;;8.07;;
11829;SDS011;5972;42.134;24.718;2023-04-01T01:32:28;11.43;;;7.57;;
11829;SDS011;5972;42.134;24.718;2023-04-01T01:35:13;9.60;;;6.90;;
11829;SDS011;5972;42.134;24.718;2023-04-01T01:37:45;11.75;;;7.97;;
11829;SDS011;5972;42.134;24.718;2023-04-01T01:40:16;11.20;;;7.80;;
11829;SDS011;5972;42.134;24.718;2023-04-01T01:42:45;12.40;;;7.25;;
11829;SDS011;5972;42.134;24.718;2023-04-01T01:45:16;11.20;;;7.15;;
11829;SDS011;5972;42.134;24.718;2023-04-01T01:47:47;13.63;;;6.68;;
11829;SDS011;5972;42.134;24.718;2023-04-01T01:50:17;12.07;;;6.47;;
11829;SDS011;5972;42.134;24.718;2023-04-01T01:52:45;10.38;;;6.53;;
11829;SDS011;5972;42.134;24.718;2023-04-01T01:58:02;10.18;;;7.00;;
11829;SDS011;5972;42.134;24.718;2023-04-01T02:00:34;11.57;;;6.47;;
11829;SDS011;5972;42.134;24.718;2023-04-01T02:03:01;10.52;;;6.50;;
11829;SDS011;5972;42.134;24.718;2023-04-01T02:05:32;17.17;;;7.18;;
11829;SDS011;5972;42.134;24.718;2023-04-01T02:08:00;9.43;;;7.72;;
11829;SDS011;5972;42.134;24.718;2023-04-01T02:10:31;11.27;;;8.50;;
11829;SDS011;5972;42.134;24.718;2023-04-01T02:13:04;13.07;;;9.70;;
11829;SDS011;5972;42.134;24.718;2023-04-01T02:15:37;18.33;;;11.30;;
11829;SDS011;5972;42.134;24.718;2023-04-01T02:18:09;14.33;;;10.27;;
11829;SDS011;5972;42.134;24.718;2023-04-01T02:20:39;13.47;;;10.47;;
11829;SDS011;5972;42.134;24.718;2023-04-01T02:23:08;16.60;;;10.57;;
11829;SDS011;5972;42.134;24.718;2023-04-01T02:25:37;17.17;;;10.47;;
11829;SDS011;5972;42.134;24.718;2023-04-01T02:28:05;14.43;;;10.83;;
11829;SDS011;5972;42.134;24.718;2023-04-01T02:30:35;15.00;;;9.73;;
11829;SDS011;5972;42.134;24.718;2023-04-01T02:33:05;13.83;;;10.37;;
11829;SDS011;5972;42.134;24.718;2023-04-01T02:35:32;16.40;;;9.63;;
11829;SDS011;5972;42.134;24.718;2023-04-01T02:38:02;14.77;;;10.00;;
11829;SDS011;5972;42.134;24.718;2023-04-01T02:40:40;14.95;;;10.27;;
11829;SDS011;5972;42.134;24.718;2023-04-01T02:43:07;15.50;;;10.40;;
11829;SDS011;5972;42.134;24.718;2023-04-01T02:45:34;16.50;;;9.93;;
11829;SDS011;5972;42.134;24.718;2023-04-01T02:48:01;15.77;;;10.33;;
11829;SDS011;5972;42.134;24.718;2023-04-01T02:50:28;17.03;;;9.43;;
11829;SDS011;5972;42.134;24.718;2023-04-01T02:52:55;13.70;;;9.80;;
11829;SDS011;5972;42.134;24.718;2023-04-01T02:55:23;15.37;;;9.50;;
11829;SDS011;5972;42.134;24.718;2023-04-01T02:57:50;13.07;;;9.73;;
11829;SDS011;5972;42.134;24.718;2023-04-01T03:00:17;15.82;;;10.00;;
11829;SDS011;5972;42.134;24.718;2023-04-01T03:02:44;14.37;;;10.50;;
11829;SDS011;5972;42.134;24.718;2023-04-01T03:05:10;11.77;;;9.40;;
11829;SDS011;5972;42.134;24.718;2023-04-01T03:07:37;13.68;;;9.02;;
11829;SDS011;5972;42.134;24.718;2023-04-01T03:10:05;16.05;;;10.35;;
11829;SDS011;5972;42.134;24.718;2023-04-01T03:12:34;14.43;;;9.80;;
11829;SDS011;5972;42.134;24.718;2023-04-01T03:15:01;19.17;;;11.67;;
11829;SDS011;5972;42.134;24.718;2023-04-01T03:17:28;16.47;;;10.70;;
11829;SDS011;5972;42.134;24.718;2023-04-01T03:19:55;19.98;;;10.82;;
11829;SDS011;5972;42.134;24.718;2023-04-01T03:22:21;20.80;;;12.53;;
11829;SDS011;5972;42.134;24.718;2023-04-01T03:24:48;17.53;;;12.87;;
11829;SDS011;5972;42.134;24.718;2023-04-01T03:27:15;17.58;;;11.60;;
11829;SDS011;5972;42.134;24.718;2023-04-01T03:29:44;20.13;;;12.38;;
11829;SDS011;5972;42.134;24.718;2023-04-01T03:32:10;21.97;;;13.20;;
11829;SDS011;5972;42.134;24.718;2023-04-01T03:34:37;14.03;;;10.17;;
11829;SDS011;5972;42.134;24.718;2023-04-01T03:37:04;17.33;;;11.23;;
11829;SDS011;5972;42.134;24.718;2023-04-01T03:39:31;17.40;;;10.90;;
11829;SDS011;5972;42.134;24.718;2023-04-01T03:41:58;15.70;;;10.03;;
11829;SDS011;5972;42.134;24.718;2023-04-01T03:44:25;11.80;;;10.10;;
11829;SDS011;5972;42.134;24.718;2023-04-01T03:46:53;14.27;;;10.07;;
11829;SDS011;5972;42.134;24.718;2023-04-01T03:49:20;14.27;;;10.00;;
11829;SDS011;5972;42.134;24.718;2023-04-01T03:51:47;15.43;;;11.37;;
11829;SDS011;5972;42.134;24.718;2023-04-01T03:54:14;12.37;;;10.33;;
11829;SDS011;5972;42.134;24.718;2023-04-01T03:56:41;19.57;;;11.00;;
11829;SDS011;5972;42.134;24.718;2023-04-01T03:59:08;22.20;;;10.67;;
11829;SDS011;5972;42.134;24.718;2023-04-01T04:01:35;15.23;;;10.70;;
11829;SDS011;5972;42.134;24.718;2023-04-01T04:04:03;18.87;;;11.27;;
11829;SDS011;5972;42.134;24.718;2023-04-01T04:06:30;21.63;;;10.77;;
11829;SDS011;5972;42.134;24.718;2023-04-01T04:08:58;17.97;;;9.80;;
11829;SDS011;5972;42.134;24.718;2023-04-01T04:11:25;16.07;;;9.87;;
11829;SDS011;5972;42.134;24.718;2023-04-01T04:13:52;13.30;;;9.47;;
11829;SDS011;5972;42.134;24.718;2023-04-01T04:16:19;19.60;;;10.27;;
11829;SDS011;5972;42.134;24.718;2023-04-01T04:18:45;15.93;;;9.70;;
11829;SDS011;5972;42.134;24.718;2023-04-01T04:21:14;17.67;;;10.07;;
11829;SDS011;5972;42.134;24.718;2023-04-01T04:23:41;16.20;;;9.33;;
11829;SDS011;5972;42.134;24.718;2023-04-01T04:26:09;12.27;;;8.93;;
11829;SDS011;5972;42.134;24.718;2023-04-01T04:28:38;14.80;;;9.47;;
11829;SDS011;5972;42.134;24.718;2023-04-01T04:31:05;17.90;;;9.87;;
11829;SDS011;5972;42.134;24.718;2023-04-01T04:33:33;12.13;;;9.07;;
11829;SDS011;5972;42.134;24.718;2023-04-01T04:36:00;18.92;;;10.38;;
11829;SDS011;5972;42.134;24.718;2023-04-01T04:38:28;17.02;;;9.23;;
11829;SDS011;5972;42.134;24.718;2023-04-01T04:40:56;14.25;;;9.45;;
11829;SDS011;5972;42.134;24.718;2023-04-01T04:43:22;13.05;;;8.48;;
11829;SDS011;5972;42.134;24.718;2023-04-01T04:45:49;15.20;;;9.05;;
11829;SDS011;5972;42.134;24.718;2023-04-01T04:48:17;12.93;;;8.75;;
11829;SDS011;5972;42.134;24.718;2023-04-01T04:50:45;9.98;;;7.82;;
11829;SDS011;5972;42.134;24.718;2023-04-01T04:53:13;11.95;;;7.72;;
11829;SDS011;5972;42.134;24.718;2023-04-01T04:55:46;16.48;;;7.63;;
11829;SDS011;5972;42.134;24.718;2023-04-01T04:58:13;15.07;;;6.80;;
11829;SDS011;5972;42.134;24.718;2023-04-01T05:00:40;11.15;;;7.50;;
11829;SDS011;5972;42.134;24.718;2023-04-01T05:03:08;17.15;;;7.13;;
11829;SDS011;5972;42.134;24.718;2023-04-01T05:05:36;11.57;;;6.22;;
11829;SDS011;5972;42.134;24.718;2023-04-01T05:08:03;14.70;;;6.22;;
11829;SDS011;5972;42.134;24.718;2023-04-01T05:10:30;13.05;;;6.68;;
11829;SDS011;5972;42.134;24.718;2023-04-01T05:12:58;11.40;;;5.50;;
11829;SDS011;5972;42.134;24.718;2023-04-01T05:15:24;11.68;;;6.20;;
11829;SDS011;5972;42.134;24.718;2023-04-01T05:17:51;16.30;;;7.00;;
11829;SDS011;5972;42.134;24.718;2023-04-01T05:20:18;18.27;;;8.13;;
11829;SDS011;5972;42.134;24.718;2023-04-01T05:22:45;14.70;;;7.28;;
11829;SDS011;5972;42.134;24.718;2023-04-01T05:25:12;21.02;;;9.73;;
11829;SDS011;5972;42.134;24.718;2023-04-01T05:27:39;20.17;;;9.48;;
11829;SDS011;5972;42.134;24.718;2023-04-01T05:30:07;22.75;;;10.90;;
11829;SDS011;5972;42.134;24.718;2023-04-01T05:32:35;22.77;;;13.10;;
11829;SDS011;5972;42.134;24.718;2023-04-01T05:35:01;19.42;;;11.07;;
11829;SDS011;5972;42.134;24.718;2023-04-01T05:37:29;13.30;;;10.57;;
11829;SDS011;5972;42.134;24.718;2023-04-01T05:39:55;20.13;;;10.25;;
11829;SDS011;5972;42.134;24.718;2023-04-01T05:42:23;18.05;;;10.38;;
11829;SDS011;5972;42.134;24.718;2023-04-01T05:44:50;32.67;;;16.70;;
11829;SDS011;5972;42.134;24.718;2023-04-01T05:47:19;25.42;;;12.82;;
11829;SDS011;5972;42.134;24.718;2023-04-01T05:49:45;18.90;;;12.60;;
11829;SDS011;5972;42.134;24.718;2023-04-01T05:52:12;18.40;;;9.70;;
11829;SDS011;5972;42.134;24.718;2023-04-01T05:54:39;23.85;;;10.77;;
11829;SDS011;5972;42.134;24.718;2023-04-01T05:57:06;18.45;;;10.10;;
11829;SDS011;5972;42.134;24.718;2023-04-01T05:59:33;29.45;;;11.73;;
11829;SDS011;5972;42.134;24.718;2023-04-01T06:02:00;23.00;;;10.30;;
11829;SDS011;5972;42.134;24.718;2023-04-01T06:04:31;12.25;;;6.38;;
11829;SDS011;5972;42.134;24.718;2023-04-01T06:07:05;13.70;;;8.43;;
11829;SDS011;5972;42.134;24.718;2023-04-01T06:09:37;20.13;;;10.07;;
11829;SDS011;5972;42.134;24.718;2023-04-01T06:15:13;10.95;;;5.72;;
11829;SDS011;5972;42.134;24.718;2023-04-01T06:17:56;9.32;;;4.93;;
11829;SDS011;5972;42.134;24.718;2023-04-01T06:20:37;7.05;;;4.68;;
11829;SDS011;5972;42.134;24.718;2023-04-01T06:23:12;7.78;;;5.45;;
11829;SDS011;5972;42.134;24.718;2023-04-01T06:25:54;11.07;;;5.32;;
11829;SDS011;5972;42.134;24.718;2023-04-01T06:28:52;9.32;;;4.88;;
11829;SDS011;5972;42.134;24.718;2023-04-01T06:34:29;12.48;;;5.03;;
11829;SDS011;5972;42.134;24.718;2023-04-01T06:40:40;9.43;;;5.85;;
11829;SDS011;5972;42.134;24.718;2023-04-01T06:43:27;9.10;;;5.03;;
11829;SDS011;5972;42.134;24.718;2023-04-01T06:46:06;10.95;;;5.30;;
11829;SDS011;5972;42.134;24.718;2023-04-01T06:48:45;10.40;;;5.30;;
11829;SDS011;5972;42.134;24.718;2023-04-01T06:51:26;9.25;;;5.90;;
11829;SDS011;5972;42.134;24.718;2023-04-01T06:54:04;15.45;;;6.07;;
11829;SDS011;5972;42.134;24.718;2023-04-01T06:56:40;7.35;;;5.25;;
11829;SDS011;5972;42.134;24.718;2023-04-01T06:59:10;9.85;;;5.70;;
11829;SDS011;5972;42.134;24.718;2023-04-01T07:01:42;10.68;;;5.07;;
11829;SDS011;5972;42.134;24.718;2023-04-01T07:04:14;9.05;;;5.50;;
11829;SDS011;5972;42.134;24.718;2023-04-01T07:06:46;9.27;;;5.28;;
11829;SDS011;5972;42.134;24.718;2023-04-01T07:09:18;11.15;;;5.35;;
11829;SDS011;5972;42.134;24.718;2023-04-01T07:11:49;15.70;;;7.20;;
11829;SDS011;5972;42.134;24.718;2023-04-01T07:14:19;11.35;;;6.05;;
11829;SDS011;5972;42.134;24.718;2023-04-01T07:16:51;7.70;;;4.95;;
11829;SDS011;5972;42.134;24.718;2023-04-01T07:19:26;8.10;;;5.00;;
11829;SDS011;5972;42.134;24.718;2023-04-01T07:21:58;7.43;;;4.45;;
11829;SDS011;5972;42.134;24.718;2023-04-01T07:24:32;7.72;;;5.15;;
11829;SDS011;5972;42.134;24.718;2023-04-01T07:27:02;8.30;;;4.85;;
11829;SDS011;5972;42.134;24.718;2023-04-01T07:29:29;6.80;;;5.07;;
11829;SDS011;5972;42.134;24.718;2023-04-01T07:32:07;11.00;;;4.30;;
11829;SDS011;5972;42.134;24.718;2023-04-01T07:34:44;9.60;;;4.63;;
11829;SDS011;5972;42.134;24.718;2023-04-01T07:37:22;7.53;;;4.63;;
11829;SDS011;5972;42.134;24.718;2023-04-01T07:39:56;11.07;;;5.00;;
11829;SDS011;5972;42.134;24.718;2023-04-01T07:42:37;13.50;;;5.38;;
11829;SDS011;5972;42.134;24.718;2023-04-01T07:45:15;7.85;;;4.88;;
11829;SDS011;5972;42.134;24.718;2023-04-01T07:47:52;8.80;;;4.97;;
11829;SDS011;5972;42.134;24.718;2023-04-01T07:50:31;9.60;;;5.43;;
11829;SDS011;5972;42.134;24.718;2023-04-01T07:53:04;9.73;;;5.38;;
11829;SDS011;5972;42.134;24.718;2023-04-01T07:55:42;8.90;;;5.32;;
11829;SDS011;5972;42.134;24.718;2023-04-01T07:58:17;12.80;;;5.40;;
11829;SDS011;5972;42.134;24.718;2023-04-01T08:00:57;7.30;;;4.97;;
11829;SDS011;5972;42.134;24.718;2023-04-01T08:03:31;7.15;;;4.63;;
11829;SDS011;5972;42.134;24.718;2023-04-01T08:06:06;11.27;;;5.57;;
11829;SDS011;5972;42.134;24.718;2023-04-01T08:08:43;5.90;;;4.97;;
11829;SDS011;5972;42.134;24.718;2023-04-01T08:11:25;7.82;;;5.45;;
11829;SDS011;5972;42.134;24.718;2023-04-01T08:14:08;10.02;;;5.15;;
11829;SDS011;5972;42.134;24.718;2023-04-01T08:16:45;7.90;;;4.78;;
11829;SDS011;5972;42.134;24.718;2023-04-01T08:19:19;9.43;;;4.90;;
11829;SDS011;5972;42.134;24.718;2023-04-01T08:21:56;8.93;;;4.88;;
11829;SDS011;5972;42.134;24.718;2023-04-01T08:24:25;7.68;;;5.32;;
11829;SDS011;5972;42.134;24.718;2023-04-01T08:26:59;13.63;;;5.32;;
11829;SDS011;5972;42.134;24.718;2023-04-01T08:29:33;11.02;;;5.20;;
11829;SDS011;5972;42.134;24.718;2023-04-01T08:32:06;6.45;;;4.93;;
11829;SDS011;5972;42.134;24.718;2023-04-01T08:34:37;10.65;;;5.03;;
11829;SDS011;5972;42.134;24.718;2023-04-01T08:37:09;9.23;;;5.00;;
11829;SDS011;5972;42.134;24.718;2023-04-01T08:39:43;9.13;;;5.22;;
11829;SDS011;5972;42.134;24.718;2023-04-01T08:42:27;7.18;;;4.82;;
11829;SDS011;5972;42.134;24.718;2023-04-01T08:51:08;9.57;;;4.68;;
11829;SDS011;5972;42.134;24.718;2023-04-01T08:53:54;9.40;;;4.78;;
11829;SDS011;5972;42.134;24.718;2023-04-01T08:56:42;6.40;;;4.55;;
11829;SDS011;5972;42.134;24.718;2023-04-01T08:59:26;5.43;;;4.18;;
11829;SDS011;5972;42.134;24.718;2023-04-01T09:02:29;12.85;;;5.18;;
11829;SDS011;5972;42.134;24.718;2023-04-01T09:05:21;8.80;;;4.20;;
11829;SDS011;5972;42.134;24.718;2023-04-01T09:08:03;10.23;;;5.18;;
11829;SDS011;5972;42.134;24.718;2023-04-01T09:13:44;6.50;;;4.70;;
11829;SDS011;5972;42.134;24.718;2023-04-01T09:16:58;7.35;;;5.05;;
11829;SDS011;5972;42.134;24.718;2023-04-01T09:19:48;8.07;;;5.05;;
11829;SDS011;5972;42.134;24.718;2023-04-01T09:22:37;9.75;;;5.10;;
11829;SDS011;5972;42.134;24.718;2023-04-01T09:25:30;11.23;;;5.88;;
11829;SDS011;5972;42.134;24.718;2023-04-01T09:28:13;10.98;;;5.82;;
11829;SDS011;5972;42.134;24.718;2023-04-01T09:30:58;12.55;;;5.43;;
11829;SDS011;5972;42.134;24.718;2023-04-01T09:33:53;9.30;;;5.70;;
11829;SDS011;5972;42.134;24.718;2023-04-01T09:36:38;11.23;;;5.80;;
11829;SDS011;5972;42.134;24.718;2023-04-01T09:39:21;7.68;;;5.53;;
11829;SDS011;5972;42.134;24.718;2023-04-01T09:42:06;8.07;;;5.22;;
11829;SDS011;5972;42.134;24.718;2023-04-01T09:44:51;7.25;;;5.07;;
11829;SDS011;5972;42.134;24.718;2023-04-01T09:47:28;8.82;;;5.03;;
11829;SDS011;5972;42.134;24.718;2023-04-01T09:50:13;10.45;;;5.78;;
11829;SDS011;5972;42.134;24.718;2023-04-01T09:52:49;8.43;;;4.78;;
11829;SDS011;5972;42.134;24.718;2023-04-01T09:58:32;9.15;;;5.03;;
11829;SDS011;5972;42.134;24.718;2023-04-01T10:01:22;7.65;;;5.85;;
11829;SDS011;5972;42.134;24.718;2023-04-01T10:07:41;6.88;;;5.03;;
11829;SDS011;5972;42.134;24.718;2023-04-01T10:10:43;9.88;;;5.57;;
11829;SDS011;5972;42.134;24.718;2023-04-01T10:16:41;7.30;;;4.70;;
11829;SDS011;5972;42.134;24.718;2023-04-01T10:25:52;8.32;;;5.78;;
11829;SDS011;5972;42.134;24.718;2023-04-01T10:31:56;9.65;;;5.75;;
11829;SDS011;5972;42.134;24.718;2023-04-01T10:35:18;10.48;;;6.22;;
11829;SDS011;5972;42.134;24.718;2023-04-01T10:40:58;12.45;;;6.47;;
11829;SDS011;5972;42.134;24.718;2023-04-01T10:44:00;7.80;;;6.03;;
11829;SDS011;5972;42.134;24.718;2023-04-01T10:47:07;7.57;;;5.50;;
11829;SDS011;5972;42.134;24.718;2023-04-01T11:05:36;9.18;;;5.60;;
11829;SDS011;5972;42.134;24.718;2023-04-01T11:24:17;12.50;;;5.88;;
11829;SDS011;5972;42.134;24.718;2023-04-01T11:27:28;14.63;;;6.15;;
11829;SDS011;5972;42.134;24.718;2023-04-01T11:30:14;9.82;;;6.22;;
11829;SDS011;5972;42.134;24.718;2023-04-01T11:32:55;10.18;;;5.85;;
11829;SDS011;5972;42.134;24.718;2023-04-01T11:35:39;8.50;;;5.63;;
11829;SDS011;5972;42.134;24.718;2023-04-01T11:39:00;9.32;;;5.65;;
11829;SDS011;5972;42.134;24.718;2023-04-01T11:41:48;8.13;;;5.70;;
11829;SDS011;5972;42.134;24.718;2023-04-01T11:44:29;7.32;;;5.47;;
11829;SDS011;5972;42.134;24.718;2023-04-01T11:47:18;6.65;;;5.30;;
11829;SDS011;5972;42.134;24.718;2023-04-01T11:50:00;8.00;;;5.45;;
11829;SDS011;5972;42.134;24.718;2023-04-01T11:53:01;9.77;;;5.50;;
11829;SDS011;5972;42.134;24.718;2023-04-01T11:55:44;11.82;;;5.38;;
11829;SDS011;5972;42.134;24.718;2023-04-01T11:58:41;10.63;;;5.70;;
11829;SDS011;5972;42.134;24.718;2023-04-01T12:04:46;11.68;;;5.28;;
11829;SDS011;5972;42.134;24.718;2023-04-01T12:07:44;8.55;;;5.43;;
11829;SDS011;5972;42.134;24.718;2023-04-01T12:10:39;13.98;;;5.00;;
11829;SDS011;5972;42.134;24.718;2023-04-01T12:13:21;13.68;;;5.53;;
11829;SDS011;5972;42.134;24.718;2023-04-01T12:15:59;9.02;;;5.80;;
11829;SDS011;5972;42.134;24.718;2023-04-01T12:18:43;11.00;;;6.03;;
11829;SDS011;5972;42.134;24.718;2023-04-01T12:22:56;9.02;;;5.65;;
11829;SDS011;5972;42.134;24.718;2023-04-01T12:24:49;7.25;;;5.07;;
11829;SDS011;5972;42.134;24.718;2023-04-01T12:27:44;8.73;;;4.82;;
11829;SDS011;5972;42.134;24.718;2023-04-01T12:38:10;8.98;;;4.68;;
11829;SDS011;5972;42.134;24.718;2023-04-01T12:41:22;7.85;;;4.15;;
11829;SDS011;5972;42.134;24.718;2023-04-01T12:44:12;8.63;;;4.45;;
11829;SDS011;5972;42.134;24.718;2023-04-01T12:47:21;7.68;;;4.40;;
11829;SDS011;5972;42.134;24.718;2023-04-01T12:50:40;10.10;;;4.57;;
11829;SDS011;5972;42.134;24.718;2023-04-01T12:53:37;8.50;;;4.10;;
11829;SDS011;5972;42.134;24.718;2023-04-01T12:56:19;8.32;;;4.13;;
11829;SDS011;5972;42.134;24.718;2023-04-01T12:59:10;9.30;;;4.25;;
11829;SDS011;5972;42.134;24.718;2023-04-01T13:01:56;7.63;;;4.10;;
11829;SDS011;5972;42.134;24.718;2023-04-01T13:10:53;9.57;;;4.32;;
11829;SDS011;5972;42.134;24.718;2023-04-01T13:14:04;11.10;;;4.95;;
11829;SDS011;5972;42.134;24.718;2023-04-01T13:17:03;11.50;;;5.25;;
11829;SDS011;5972;42.134;24.718;2023-04-01T13:19:57;8.63;;;5.03;;
11829;SDS011;5972;42.134;24.718;2023-04-01T13:22:33;9.20;;;5.35;;
11829;SDS011;5972;42.134;24.718;2023-04-01T13:25:29;7.55;;;5.30;;
11829;SDS011;5972;42.134;24.718;2023-04-01T13:28:05;9.32;;;5.30;;
11829;SDS011;5972;42.134;24.718;2023-04-01T13:30:43;13.60;;;5.03;;
11829;SDS011;5972;42.134;24.718;2023-04-01T13:33:25;12.73;;;5.45;;
11829;SDS011;5972;42.134;24.718;2023-04-01T13:36:13;12.38;;;5.63;;
11829;SDS011;5972;42.134;24.718;2023-04-01T13:38:57;15.93;;;6.30;;
11829;SDS011;5972;42.134;24.718;2023-04-01T13:42:09;22.73;;;6.57;;
11829;SDS011;5972;42.134;24.718;2023-04-01T13:48:29;11.98;;;5.70;;
11829;SDS011;5972;42.134;24.718;2023-04-01T13:51:21;16.83;;;8.70;;
11829;SDS011;5972;42.134;24.718;2023-04-01T13:54:15;15.52;;;7.68;;
11829;SDS011;5972;42.134;24.718;2023-04-01T13:56:57;9.85;;;5.85;;
11829;SDS011;5972;42.134;24.718;2023-04-01T14:02:50;12.05;;;6.97;;
11829;SDS011;5972;42.134;24.718;2023-04-01T14:05:47;12.13;;;6.97;;
11829;SDS011;5972;42.134;24.718;2023-04-01T14:08:35;24.60;;;12.20;;
11829;SDS011;5972;42.134;24.718;2023-04-01T14:11:19;11.02;;;6.68;;
11829;SDS011;5972;42.134;24.718;2023-04-01T14:13:56;41.78;;;20.05;;
11829;SDS011;5972;42.134;24.718;2023-04-01T14:16:48;35.47;;;16.77;;
11829;SDS011;5972;42.134;24.718;2023-04-01T14:19:41;13.68;;;5.97;;
11829;SDS011;5972;42.134;24.718;2023-04-01T14:22:26;13.57;;;7.55;;
11829;SDS011;5972;42.134;24.718;2023-04-01T14:28:09;7.20;;;4.13;;
11829;SDS011;5972;42.134;24.718;2023-04-01T14:30:45;8.65;;;4.65;;
11829;SDS011;5972;42.134;24.718;2023-04-01T14:33:26;7.93;;;3.42;;
11829;SDS011;5972;42.134;24.718;2023-04-01T14:36:07;6.30;;;3.30;;
11829;SDS011;5972;42.134;24.718;2023-04-01T14:38:53;7.20;;;3.55;;
11829;SDS011;5972;42.134;24.718;2023-04-01T14:41:30;6.05;;;3.20;;
11829;SDS011;5972;42.134;24.718;2023-04-01T14:44:16;8.70;;;3.72;;
11829;SDS011;5972;42.134;24.718;2023-04-01T14:50:04;4.45;;;3.35;;
11829;SDS011;5972;42.134;24.718;2023-04-01T14:52:36;6.93;;;3.35;;
11829;SDS011;5972;42.134;24.718;2023-04-01T14:55:15;6.50;;;3.22;;
11829;SDS011;5972;42.134;24.718;2023-04-01T14:57:57;10.10;;;3.20;;
11829;SDS011;5972;42.134;24.718;2023-04-01T15:00:26;5.25;;;3.10;;
11829;SDS011;5972;42.134;24.718;2023-04-01T15:03:06;4.63;;;2.90;;
11829;SDS011;5972;42.134;24.718;2023-04-01T15:05:45;3.83;;;1.95;;
11829;SDS011;5972;42.134;24.718;2023-04-01T15:08:16;2.47;;;1.90;;
11829;SDS011;5972;42.134;24.718;2023-04-01T15:10:56;2.83;;;2.25;;
11829;SDS011;5972;42.134;24.718;2023-04-01T15:13:44;3.58;;;2.05;;
11829;SDS011;5972;42.134;24.718;2023-04-01T15:16:30;3.08;;;2.15;;
11829;SDS011;5972;42.134;24.718;2023-04-01T15:19:10;4.75;;;2.30;;
11829;SDS011;5972;42.134;24.718;2023-04-01T15:21:57;4.30;;;2.20;;
11829;SDS011;5972;42.134;24.718;2023-04-01T15:24:44;7.68;;;2.88;;
11829;SDS011;5972;42.134;24.718;2023-04-01T15:27:21;4.40;;;2.92;;
11829;SDS011;5972;42.134;24.718;2023-04-01T15:30:02;4.35;;;2.90;;
11829;SDS011;5972;42.134;24.718;2023-04-01T15:36:00;7.88;;;2.92;;
11829;SDS011;5972;42.134;24.718;2023-04-01T15:38:38;5.13;;;3.38;;
11829;SDS011;5972;42.134;24.718;2023-04-01T15:41:14;6.45;;;3.67;;
11829;SDS011;5972;42.134;24.718;2023-04-01T15:43:42;7.20;;;4.03;;
11829;SDS011;5972;42.134;24.718;2023-04-01T15:49:15;5.72;;;3.28;;
11829;SDS011;5972;42.134;24.718;2023-04-01T15:52:03;7.13;;;3.83;;
11829;SDS011;5972;42.134;24.718;2023-04-01T15:57:38;12.63;;;5.65;;
11829;SDS011;5972;42.134;24.718;2023-04-01T16:03:16;15.10;;;6.97;;
11829;SDS011;5972;42.134;24.718;2023-04-01T16:05:54;8.30;;;3.65;;
11829;SDS011;5972;42.134;24.718;2023-04-01T16:11:36;4.65;;;3.28;;
11829;SDS011;5972;42.134;24.718;2023-04-01T16:14:13;7.85;;;4.47;;
11829;SDS011;5972;42.134;24.718;2023-04-01T16:16:53;10.75;;;4.15;;
11829;SDS011;5972;42.134;24.718;2023-04-01T16:19:33;5.70;;;4.10;;
11829;SDS011;5972;42.134;24.718;2023-04-01T16:22:08;7.80;;;4.50;;
11829;SDS011;5972;42.134;24.718;2023-04-01T16:24:40;6.78;;;3.28;;
11829;SDS011;5972;42.134;24.718;2023-04-01T16:27:14;9.57;;;4.20;;
11829;SDS011;5972;42.134;24.718;2023-04-01T16:29:51;7.07;;;4.25;;
11829;SDS011;5972;42.134;24.718;2023-04-01T16:32:28;5.93;;;3.95;;
11829;SDS011;5972;42.134;24.718;2023-04-01T16:37:59;5.82;;;3.75;;
11829;SDS011;5972;42.134;24.718;2023-04-01T16:40:36;6.78;;;4.00;;
11829;SDS011;5972;42.134;24.718;2023-04-01T16:43:12;5.75;;;3.20;;
11829;SDS011;5972;42.134;24.718;2023-04-01T16:45:47;8.65;;;3.47;;
11829;SDS011;5972;42.134;24.718;2023-04-01T16:48:25;7.45;;;3.10;;
11829;SDS011;5972;42.134;24.718;2023-04-01T16:51:01;5.32;;;3.33;;
11829;SDS011;5972;42.134;24.718;2023-04-01T16:53:35;5.85;;;3.15;;
11829;SDS011;5972;42.134;24.718;2023-04-01T16:56:10;3.78;;;2.38;;
11829;SDS011;5972;42.134;24.718;2023-04-01T16:58:57;4.18;;;2.90;;
11829;SDS011;5972;42.134;24.718;2023-04-01T17:01:30;5.13;;;3.97;;
11829;SDS011;5972;42.134;24.718;2023-04-01T17:04:07;5.18;;;3.75;;
11829;SDS011;5972;42.134;24.718;2023-04-01T17:06:43;6.85;;;4.57;;
11829;SDS011;5972;42.134;24.718;2023-04-01T17:09:25;7.22;;;4.43;;
11829;SDS011;5972;42.134;24.718;2023-04-01T17:12:03;7.15;;;4.93;;
11829;SDS011;5972;42.134;24.718;2023-04-01T17:14:39;6.90;;;4.57;;
11829;SDS011;5972;42.134;24.718;2023-04-01T17:17:17;5.72;;;4.65;;
11829;SDS011;5972;42.134;24.718;2023-04-01T17:20:10;5.95;;;3.70;;
11829;SDS011;5972;42.134;24.718;2023-04-01T17:22:44;4.93;;;3.50;;
11829;SDS011;5972;42.134;24.718;2023-04-01T17:25:26;5.85;;;3.95;;
11829;SDS011;5972;42.134;24.718;2023-04-01T17:28:04;5.93;;;3.80;;
11829;SDS011;5972;42.134;24.718;2023-04-01T17:30:41;4.03;;;3.15;;
11829;SDS011;5972;42.134;24.718;2023-04-01T17:33:23;4.05;;;3.65;;
11829;SDS011;5972;42.134;24.718;2023-04-01T17:36:09;4.00;;;3.63;;
11829;SDS011;5972;42.134;24.718;2023-04-01T17:38:58;6.20;;;3.65;;
11829;SDS011;5972;42.134;24.718;2023-04-01T17:41:41;5.63;;;3.95;;
11829;SDS011;5972;42.134;24.718;2023-04-01T17:44:16;6.85;;;3.65;;
11829;SDS011;5972;42.134;24.718;2023-04-01T17:47:01;6.13;;;3.47;;